Time;durP1;ratioP1;P1;durP2;ratioP2;P2;SDS_P1;SDS_P2;PMS_P1;PMS_P2;Temp;Humidity;BMP_temperature;BMP_pressure;BME280_temperature;BME280_humidity;BME280_pressure;Samples;Min_cycle;Max_cycle;Signal;HPM_P1;HPM_P2
2022/10/23 00:01:50;;;;;;;;;;;;;;;13.90;76.17;101393.25;5059699;28;20018;-54
2022/10/23 00:04:20;;;;;;;;;;;;;;;13.91;76.11;101400.25;5055962;28;19936;-54
2022/10/23 00:06:46;;;;;;;;;;;;;;;13.92;76.19;101396.66;5058796;28;19934;-53
2022/10/23 00:09:14;;;;;;;;;;;;;;;13.94;76.15;101399.19;5059159;28;20431;-53
2022/10/23 00:11:41;;;;;;;;;;;;;;;13.96;76.23;101392.00;5060192;28;19925;-53
2022/10/23 00:14:06;;;;;;;;;;;;;;;13.97;76.07;101389.28;5053741;28;20301;-51
2022/10/23 00:16:32;;;;;;;;;;;;;;;13.99;76.11;101395.31;5065341;28;19916;-53
2022/10/23 00:18:58;;;;;;;;;;;;;;;14.00;76.33;101398.81;5066360;28;19948;-52
2022/10/23 00:21:24;;;;;;;;;;;;;;;14.00;76.17;101399.66;5060657;28;19962;-55
2022/10/23 00:23:49;;;;;;;;;;;;;;;13.99;76.11;101395.31;5067054;28;20505;-50
2022/10/23 00:26:15;;;;;;;;;;;;;;;14.00;76.14;101397.00;5066279;28;19924;-53
2022/10/23 00:28:44;;;;;;;;;;;;;;;14.01;76.19;101401.38;5062960;28;19920;-54
2022/10/23 00:31:10;;;;;;;;;;;;;;;14.01;76.03;101406.66;5065582;28;19916;-52
2022/10/23 00:33:35;;;;;;;;;;;;;;;14.01;76.07;101409.31;5067696;28;19924;-51
2022/10/23 00:36:03;;;;;;;;;;;;;;;14.01;76.15;101409.31;5069068;28;19948;-52
2022/10/23 00:38:28;;;;;;;;;;;;;;;14.02;76.02;101416.28;5064382;28;19920;-52
2022/10/23 00:40:53;;;;;;;;;;;;;;;14.03;76.13;101410.06;5068759;28;19921;-51
2022/10/23 00:43:20;;;;;;;;;;;;;;;14.02;76.07;101410.16;5066552;28;19929;-52
2022/10/23 00:45:46;;;;;;;;;;;;;;;14.02;76.06;101404.88;5064087;28;19924;-54
2022/10/23 00:48:12;;;;;;;;;;;;;;;14.02;76.06;101402.22;5067018;28;20488;-55
2022/10/23 00:50:37;;;;;;;;;;;;;;;14.02;75.98;101400.41;5066353;28;20358;-52
2022/10/23 00:53:03;;;;;;;;;;;;;;;14.02;75.97;101397.78;5065530;28;19925;-51
2022/10/23 00:55:29;;;;;;;;;;;;;;;14.01;76.07;101395.22;5066225;28;19921;-52
2022/10/23 00:57:54;;;;;;;;;;;;;;;14.02;75.96;101399.59;5065312;28;19916;-55
2022/10/23 01:00:24;;;;;;;;;;;;;;;14.01;76.03;101400.53;5059167;28;19921;-52
2022/10/23 01:02:50;;;;;;;;;;;;;;;14.01;76.02;101398.72;5062986;28;19927;-52
2022/10/23 01:05:16;;;;;;;;;;;;;;;14.02;76.11;101397.78;5057244;28;19917;-51
2022/10/23 01:07:49;;;;;;;;;;;;;;;14.05;76.04;101404.69;5063112;28;19916;-52
2022/10/23 01:10:18;;;;;;;;;;;;;;;14.06;76.01;101402.88;5059578;28;20445;-52
2022/10/23 01:12:54;;;;;;;;;;;;;;;14.07;76.02;101404.59;5053626;28;19920;-53
2022/10/23 01:15:28;;;;;;;;;;;;;;;14.06;75.85;101403.75;5061654;28;19924;-52
2022/10/23 01:18:19;;;;;;;;;;;;;;;14.07;76.01;101407.22;5066035;28;19920;-51
2022/10/23 01:20:59;;;;;;;;;;;;;;;14.07;75.88;101405.41;5059368;28;19920;-53
2022/10/23 01:23:30;;;;;;;;;;;;;;;14.08;75.82;101408.94;5062391;28;19931;-52
2022/10/23 01:26:14;;;;;;;;;;;;;;;14.10;75.88;101404.41;5058615;28;20390;-51
2022/10/23 01:28:42;;;;;;;;;;;;;;;14.12;75.69;101410.44;5054606;28;19919;-52
2022/10/23 01:31:10;;;;;;;;;;;;;;;14.12;75.72;101407.81;5054036;28;20009;-52
2022/10/23 01:33:56;;;;;;;;;;;;;;;14.14;75.51;101412.03;5053925;28;19920;-51
2022/10/23 01:36:25;;;;;;;;;;;;;;;14.14;75.55;101417.34;5054959;28;19925;-52
2022/10/23 01:38:57;;;;;;;;;;;;;;;14.15;75.63;101415.53;5053839;28;19921;-51
2022/10/23 01:41:31;;;;;;;;;;;;;;;14.14;75.72;101414.69;5050944;28;20296;-51
2022/10/23 01:43:56;;;;;;;;;;;;;;;14.14;75.65;101419.16;5065670;28;19928;-52
2022/10/23 01:46:24;;;;;;;;;;;;;;;14.15;75.89;101418.19;5062288;28;19916;-54
2022/10/23 01:48:51;;;;;;;;;;;;;;;14.15;75.72;101415.53;5055411;28;20305;-54
2022/10/23 01:51:18;;;;;;;;;;;;;;;14.15;75.74;101418.19;5054913;28;19945;-52
2022/10/23 01:53:45;;;;;;;;;;;;;;;14.16;75.77;101422.53;5052577;28;20015;-53
2022/10/23 01:56:12;;;;;;;;;;;;;;;14.17;75.85;101429.53;5054480;28;20439;-52
2022/10/23 01:58:41;;;;;;;;;;;;;;;14.18;75.72;101431.22;5053967;28;19928;-53
2022/10/23 02:01:08;;;;;;;;;;;;;;;14.19;75.69;101425.00;5052931;28;19929;-53
2022/10/23 02:03:34;;;;;;;;;;;;;;;14.18;75.65;101431.22;5057365;28;19928;-53
2022/10/23 02:05:59;;;;;;;;;;;;;;;14.16;75.63;101426.03;5058504;28;19927;-54
2022/10/23 02:08:25;;;;;;;;;;;;;;;14.16;75.77;101425.16;5062330;28;19921;-52
2022/10/23 02:11:03;;;;;;;;;;;;;;;14.15;75.79;101424.34;5057163;28;20577;-52
2022/10/23 02:13:41;;;;;;;;;;;;;;;14.15;75.77;101431.41;5059204;28;19924;-51
2022/10/23 02:16:21;;;;;;;;;;;;;;;14.16;75.83;101433.97;5057357;28;19931;-51
2022/10/23 02:18:58;;;;;;;;;;;;;;;14.17;75.72;101443.63;5062952;28;19978;-54
2022/10/23 02:21:33;;;;;;;;;;;;;;;14.18;75.64;101445.31;5056919;28;19920;-51
2022/10/23 02:24:04;;;;;;;;;;;;;;;14.18;75.71;101447.97;5061844;28;19925;-53
2022/10/23 02:26:32;;;;;;;;;;;;;;;14.18;75.72;101444.47;5059760;28;19982;-55
2022/10/23 02:29:00;;;;;;;;;;;;;;;14.17;75.71;101438.31;5062046;28;20013;-52
2022/10/23 02:31:25;;;;;;;;;;;;;;;14.18;75.72;101442.69;5061478;28;19920;-51
2022/10/23 02:33:51;;;;;;;;;;;;;;;14.18;75.82;101434.75;5060205;28;20007;-52
2022/10/23 02:36:17;;;;;;;;;;;;;;;14.18;75.69;101434.75;5058409;28;19971;-53
2022/10/23 02:38:43;;;;;;;;;;;;;;;14.19;75.74;101430.28;5060843;28;19933;-52
2022/10/23 02:41:18;;;;;;;;;;;;;;;14.18;75.80;101434.75;5060865;28;19956;-51
2022/10/23 02:44:07;;;;;;;;;;;;;;;14.20;76.02;101426.69;5059046;28;19924;-53
2022/10/23 02:46:38;;;;;;;;;;;;;;;14.21;75.89;101430.19;5029692;28;19932;-52
2022/10/23 02:49:12;;;;;;;;;;;;;;;14.21;75.84;101424.91;5058828;28;20001;-53
2022/10/23 02:52:00;;;;;;;;;;;;;;;14.21;75.92;101431.03;5061785;28;19935;-52
2022/10/23 02:54:35;;;;;;;;;;;;;;;14.20;75.88;101442.56;5059883;28;19920;-55
2022/10/23 02:57:00;;;;;;;;;;;;;;;14.19;76.11;101440.88;5060894;28;19925;-53
2022/10/23 02:59:30;;;;;;;;;;;;;;;14.20;76.00;101442.56;5059323;28;19931;-52
2022/10/23 03:02:05;;;;;;;;;;;;;;;14.20;75.98;101439.09;5060750;28;19942;-53
2022/10/23 03:04:31;;;;;;;;;;;;;;;14.20;76.02;101439.09;5062477;28;19928;-52
2022/10/23 03:06:57;;;;;;;;;;;;;;;14.20;76.08;101442.56;5060223;28;20002;-52
2022/10/23 03:09:24;;;;;;;;;;;;;;;14.19;76.07;101435.56;5060380;28;20115;-52
2022/10/23 03:11:50;;;;;;;;;;;;;;;14.18;76.06;101433.88;5059728;28;20461;-55
2022/10/23 03:14:15;;;;;;;;;;;;;;;14.17;76.27;101440.09;5060645;28;20035;-51
2022/10/23 03:16:40;;;;;;;;;;;;;;;14.15;76.05;101440.22;5060965;28;19923;-54
2022/10/23 03:19:06;;;;;;;;;;;;;;;14.13;76.17;101438.63;5057814;28;19927;-51
2022/10/23 03:21:31;;;;;;;;;;;;;;;14.13;76.18;101446.56;5059831;28;19917;-51
2022/10/23 03:23:56;;;;;;;;;;;;;;;14.13;76.33;101441.25;5060705;28;20001;-53
2022/10/23 03:26:22;;;;;;;;;;;;;;;14.11;76.18;101444.00;5061113;28;19920;-53
2022/10/23 03:28:47;;;;;;;;;;;;;;;14.10;76.30;101442.28;5058128;28;20918;-53
2022/10/23 03:31:12;;;;;;;;;;;;;;;14.09;76.31;101439.75;5060204;28;19934;-52
2022/10/23 03:33:37;;;;;;;;;;;;;;;14.07;76.26;101438.97;5062975;28;19931;-52
2022/10/23 03:36:03;;;;;;;;;;;;;;;14.06;76.41;101446.09;5056477;28;19978;-54
2022/10/23 03:38:28;;;;;;;;;;;;;;;14.02;76.38;101437.47;5059929;28;19930;-53
2022/10/23 03:40:54;;;;;;;;;;;;;;;14.00;76.32;101444.63;5058135;28;19921;-51
2022/10/23 03:43:19;;;;;;;;;;;;;;;13.98;76.44;101445.69;5062065;28;19928;-55
2022/10/23 03:45:44;;;;;;;;;;;;;;;13.94;76.49;101439.75;5058214;28;19928;-52
2022/10/23 03:48:10;;;;;;;;;;;;;;;13.93;76.49;101448.63;5057060;28;20472;-51
2022/10/23 03:50:35;;;;;;;;;;;;;;;13.92;76.56;101449.56;5060574;28;20627;-54
2022/10/23 03:53:01;;;;;;;;;;;;;;;13.91;76.46;101453.16;5060785;28;19917;-54
2022/10/23 03:55:26;;;;;;;;;;;;;;;13.89;76.42;101449.75;5060253;28;19924;-52
2022/10/23 03:57:52;;;;;;;;;;;;;;;13.86;76.50;101457.84;5060581;28;20023;-52
2022/10/23 04:00:17;;;;;;;;;;;;;;;13.84;76.50;101462.41;5059654;28;20405;-54
2022/10/23 04:02:42;;;;;;;;;;;;;;;13.82;76.55;101459.00;5056775;28;19963;-52
2022/10/23 04:05:08;;;;;;;;;;;;;;;13.80;76.41;101463.53;5058862;28;19928;-52
2022/10/23 04:07:33;;;;;;;;;;;;;;;13.80;76.40;101468.81;5057815;28;19992;-52
2022/10/23 04:09:58;;;;;;;;;;;;;;;13.78;76.44;101466.25;5056119;28;19928;-52
2022/10/23 04:12:24;;;;;;;;;;;;;;;13.78;76.41;101476.84;5058633;28;19968;-56
2022/10/23 04:14:49;;;;;;;;;;;;;;;13.77;76.53;101472.47;5057075;28;19916;-52
2022/10/23 04:17:14;;;;;;;;;;;;;;;13.79;76.40;101475.06;5060778;28;19986;-52
2022/10/23 04:19:40;;;;;;;;;;;;;;;13.79;76.34;101469.75;5059385;28;20015;-52
2022/10/23 04:22:05;;;;;;;;;;;;;;;13.79;76.25;101464.47;5059662;28;19916;-51
2022/10/23 04:24:30;;;;;;;;;;;;;;;13.78;76.42;101473.34;5060620;28;19939;-51
2022/10/23 04:26:56;;;;;;;;;;;;;;;13.76;76.19;101473.44;5058426;28;19928;-53
2022/10/23 04:29:23;;;;;;;;;;;;;;;13.74;76.40;101472.69;5052676;28;20301;-52
2022/10/23 04:31:48;;;;;;;;;;;;;;;13.73;76.35;101471.00;5060486;28;19929;-53
2022/10/23 04:34:14;;;;;;;;;;;;;;;13.71;76.38;101475.50;5057648;28;19985;-52
2022/10/23 04:36:39;;;;;;;;;;;;;;;13.69;76.27;101474.75;5057280;28;19928;-53
2022/10/23 04:39:04;;;;;;;;;;;;;;;13.68;76.30;101486.25;5053192;28;19974;-55
2022/10/23 04:41:30;;;;;;;;;;;;;;;13.66;76.43;101474.91;5059978;28;19928;-53
2022/10/23 04:43:55;;;;;;;;;;;;;;;13.66;76.21;101482.84;5059338;28;19932;-55
2022/10/23 04:46:20;;;;;;;;;;;;;;;13.66;76.27;101480.22;5059707;28;19928;-53
2022/10/23 04:48:45;;;;;;;;;;;;;;;13.66;76.09;101473.16;5058291;28;19962;-53
2022/10/23 04:51:11;;;;;;;;;;;;;;;13.64;76.00;101467.09;5058052;28;20037;-56
2022/10/23 04:53:37;;;;;;;;;;;;;;;13.62;76.07;101482.19;5059162;28;19940;-53
2022/10/23 04:56:03;;;;;;;;;;;;;;;13.61;76.08;101498.16;5054716;28;20411;-55
2022/10/23 04:58:29;;;;;;;;;;;;;;;13.59;76.12;101490.28;5060263;28;19936;-55
2022/10/23 05:00:54;;;;;;;;;;;;;;;13.58;76.06;101480.66;5058652;28;19931;-51
2022/10/23 05:03:21;;;;;;;;;;;;;;;13.56;76.12;101485.19;5054903;28;19929;-57
2022/10/23 05:05:46;;;;;;;;;;;;;;;13.55;75.99;101483.47;5055401;28;20022;-55
2022/10/23 05:08:12;;;;;;;;;;;;;;;13.53;75.94;101490.69;5058963;28;20055;-52
2022/10/23 05:10:37;;;;;;;;;;;;;;;13.52;76.03;101488.97;5057285;28;20421;-52
2022/10/23 05:13:03;;;;;;;;;;;;;;;13.50;76.17;101481.09;5053907;28;19928;-51
2022/10/23 05:15:28;;;;;;;;;;;;;;;13.50;76.11;101480.28;5056786;28;19952;-52
2022/10/23 05:18:14;;;;;;;;;;;;;;;13.48;76.18;101477.69;5057840;28;20448;-52
2022/10/23 05:20:40;;;;;;;;;;;;;;;13.46;76.17;101474.28;5054478;28;19924;-51
2022/10/23 05:23:08;;;;;;;;;;;;;;;13.44;76.07;101480.63;5055659;28;20305;-54
2022/10/23 05:25:34;;;;;;;;;;;;;;;13.41;76.47;101471.91;5058149;28;19935;-52
2022/10/23 05:27:59;;;;;;;;;;;;;;;13.40;76.31;101480.78;5058105;28;19920;-53
2022/10/23 05:30:25;;;;;;;;;;;;;;;13.41;76.29;101482.50;5055851;28;19986;-53
2022/10/23 05:32:50;;;;;;;;;;;;;;;13.41;76.05;101479.00;5057241;28;19928;-51
2022/10/23 05:35:18;;;;;;;;;;;;;;;13.40;76.07;101480.78;5058560;28;20011;-52
2022/10/23 05:37:44;;;;;;;;;;;;;;;13.38;75.97;101472.09;5057547;28;19924;-52
2022/10/23 05:40:10;;;;;;;;;;;;;;;13.37;76.14;101466.88;5057046;28;20435;-54
2022/10/23 05:42:35;;;;;;;;;;;;;;;13.36;75.99;101462.53;5054981;28;19913;-51
2022/10/23 05:45:01;;;;;;;;;;;;;;;13.36;76.16;101467.81;5056216;28;19964;-53
2022/10/23 05:47:26;;;;;;;;;;;;;;;13.35;76.00;101466.97;5011284;28;1143487;-52
2022/10/23 05:49:51;;;;;;;;;;;;;;;13.33;76.15;101471.50;5058765;28;19994;-52
2022/10/23 05:52:19;;;;;;;;;;;;;;;13.32;76.10;101472.44;5057817;28;19920;-50
2022/10/23 05:54:44;;;;;;;;;;;;;;;13.32;76.13;101474.22;5059284;28;20321;-53
2022/10/23 05:57:09;;;;;;;;;;;;;;;13.28;76.07;101476.19;5056900;28;19921;-54
2022/10/23 05:59:34;;;;;;;;;;;;;;;13.26;76.29;101471.00;5057167;28;19940;-53
2022/10/23 06:02:00;;;;;;;;;;;;;;;13.26;76.16;101462.19;5056905;28;19925;-53
2022/10/23 06:04:25;;;;;;;;;;;;;;;13.24;76.20;101470.22;5055597;28;19917;-53
2022/10/23 06:06:50;;;;;;;;;;;;;;;13.24;76.30;101474.66;5057432;28;19929;-52
2022/10/23 06:09:16;;;;;;;;;;;;;;;13.24;76.19;101469.38;5053270;28;19929;-53
2022/10/23 06:11:42;;;;;;;;;;;;;;;13.24;76.30;101469.38;5055910;28;20013;-53
2022/10/23 06:14:07;;;;;;;;;;;;;;;13.23;76.22;101470.34;5055811;28;19975;-53
2022/10/23 06:16:32;;;;;;;;;;;;;;;13.21;76.08;101467.75;5057729;28;19925;-53
2022/10/23 06:18:59;;;;;;;;;;;;;;;13.20;76.22;101460.78;5056185;28;20638;-55
2022/10/23 06:21:24;;;;;;;;;;;;;;;13.20;76.07;101467.84;5060495;28;19920;-52
2022/10/23 06:23:49;;;;;;;;;;;;;;;13.21;76.14;101472.22;5057037;28;20286;-50
2022/10/23 06:26:16;;;;;;;;;;;;;;;13.19;76.43;101471.44;5061391;28;20332;-53
2022/10/23 06:28:42;;;;;;;;;;;;;;;13.18;76.19;101483.78;5053161;28;20389;-52
2022/10/23 06:31:09;;;;;;;;;;;;;;;13.17;76.41;101479.44;5056827;28;19923;-52
2022/10/23 06:33:34;;;;;;;;;;;;;;;13.18;76.42;101488.22;5056043;28;19916;-55
2022/10/23 06:36:00;;;;;;;;;;;;;;;13.16;76.41;101484.81;5055501;28;19928;-53
2022/10/23 06:38:25;;;;;;;;;;;;;;;13.16;76.30;101490.09;5059974;28;19920;-51
2022/10/23 06:40:51;;;;;;;;;;;;;;;13.14;76.35;101494.63;5057456;28;19924;-53
2022/10/23 06:43:17;;;;;;;;;;;;;;;13.13;76.29;101487.63;5058181;28;20014;-52
2022/10/23 06:45:42;;;;;;;;;;;;;;;13.11;76.36;101485.94;5056193;28;20082;-52
2022/10/23 06:48:07;;;;;;;;;;;;;;;13.11;76.45;101485.94;5054321;28;20026;-51
2022/10/23 06:50:33;;;;;;;;;;;;;;;13.11;76.27;101483.28;5057781;28;19921;-55
2022/10/23 06:52:58;;;;;;;;;;;;;;;13.11;76.28;101482.44;5058230;28;19947;-51
2022/10/23 06:55:23;;;;;;;;;;;;;;;13.13;76.30;101487.63;5060637;28;20011;-53
2022/10/23 06:57:48;;;;;;;;;;;;;;;13.13;76.41;101492.91;5060185;28;19925;-54
2022/10/23 07:00:14;;;;;;;;;;;;;;;13.13;76.25;101491.13;5059611;28;20297;-52
2022/10/23 07:02:39;;;;;;;;;;;;;;;13.13;76.38;101493.78;5060422;28;20324;-55
2022/10/23 07:05:05;;;;;;;;;;;;;;;13.15;76.11;101496.31;5058149;28;20408;-53
2022/10/23 07:07:30;;;;;;;;;;;;;;;13.14;76.23;101495.50;5059992;28;20023;-53
2022/10/23 07:09:56;;;;;;;;;;;;;;;13.16;76.16;101504.16;5058798;28;20737;-55
2022/10/23 07:12:21;;;;;;;;;;;;;;;13.17;76.33;101500.56;5056073;28;19969;-52
2022/10/23 07:14:46;;;;;;;;;;;;;;;13.19;76.26;101508.44;5047670;28;20035;-53
2022/10/23 07:17:12;;;;;;;;;;;;;;;13.21;76.27;101504.75;5061404;28;19928;-56
2022/10/23 07:19:37;;;;;;;;;;;;;;;13.23;76.39;101509.97;5053764;28;19975;-53
2022/10/23 07:22:02;;;;;;;;;;;;;;;13.28;76.33;101505.25;5062922;28;20088;-53
2022/10/23 07:24:28;;;;;;;;;;;;;;;13.31;76.23;101499.81;5047988;28;19934;-54
2022/10/23 07:26:53;;;;;;;;;;;;;;;13.35;76.05;101500.47;5065144;28;19932;-52
2022/10/23 07:29:18;;;;;;;;;;;;;;;13.37;76.15;101512.69;5069808;28;19928;-55
2022/10/23 07:31:44;;;;;;;;;;;;;;;13.39;76.08;101526.63;5066084;28;19920;-53
2022/10/23 07:34:10;;;;;;;;;;;;;;;13.43;76.18;101521.22;5060765;28;20326;-53
2022/10/23 07:36:35;;;;;;;;;;;;;;;13.47;76.24;101514.81;5055780;28;19960;-53
2022/10/23 07:39:00;;;;;;;;;;;;;;;13.47;76.10;101507.72;5062784;28;20461;-53
2022/10/23 07:41:25;;;;;;;;;;;;;;;13.48;76.30;101509.44;5057812;28;19929;-56
2022/10/23 07:43:51;;;;;;;;;;;;;;;13.50;76.28;101517.28;5064419;28;19929;-54
2022/10/23 07:46:16;;;;;;;;;;;;;;;13.52;76.38;101518.06;5069700;28;19940;-52
2022/10/23 07:48:41;;;;;;;;;;;;;;;13.52;76.42;101518.06;5058239;28;19920;-52
2022/10/23 07:51:10;;;;;;;;;;;;;;;13.54;76.50;101511.72;5057780;28;20394;-54
2022/10/23 07:53:35;;;;;;;;;;;;;;;13.58;76.44;101509.75;5066921;28;20109;-54
2022/10/23 07:56:02;;;;;;;;;;;;;;;13.62;76.41;101505.13;5063965;28;20007;-52
2022/10/23 07:58:28;;;;;;;;;;;;;;;13.67;76.51;101511.00;5068592;28;20062;-54
2022/10/23 08:00:57;;;;;;;;;;;;;;;13.70;76.58;101509.03;5065986;28;20081;-54
2022/10/23 08:03:22;;;;;;;;;;;;;;;13.75;76.56;101516.72;5065492;28;20373;-54
2022/10/23 08:05:48;;;;;;;;;;;;;;;13.78;76.41;101510.38;5058179;28;19936;-56
2022/10/23 08:08:13;;;;;;;;;;;;;;;13.78;76.51;101508.56;5066902;28;19928;-55
2022/10/23 08:10:40;;;;;;;;;;;;;;;13.79;76.59;101502.34;5065173;28;20659;-56
2022/10/23 08:13:06;;;;;;;;;;;;;;;13.81;76.56;101496.97;5065442;28;19928;-56
2022/10/23 08:15:31;;;;;;;;;;;;;;;13.84;76.70;101510.03;5063404;28;19928;-57
2022/10/23 08:17:56;;;;;;;;;;;;;;;13.86;76.58;101508.13;5067755;28;20026;-56
2022/10/23 08:20:22;;;;;;;;;;;;;;;13.86;76.67;101503.69;5064229;28;19928;-56
2022/10/23 08:22:47;;;;;;;;;;;;;;;13.87;76.71;101499.25;5059707;28;20006;-57
2022/10/23 08:25:12;;;;;;;;;;;;;;;13.88;76.70;101508.88;5052259;28;20015;-57
2022/10/23 08:27:38;;;;;;;;;;;;;;;13.93;76.89;101514.75;5055696;28;19924;-56
2022/10/23 08:30:03;;;;;;;;;;;;;;;13.96;76.82;101513.72;5051025;28;20308;-55
2022/10/23 08:32:29;;;;;;;;;;;;;;;13.98;76.74;101512.69;5059083;28;19932;-54
2022/10/23 08:34:54;;;;;;;;;;;;;;;14.01;76.68;101514.31;5054966;28;19973;-54
2022/10/23 08:37:19;;;;;;;;;;;;;;;14.01;76.65;101517.78;5063531;28;20008;-55
2022/10/23 08:39:45;;;;;;;;;;;;;;;14.03;76.54;101510.63;5058085;28;19928;-54
2022/10/23 08:42:20;;;;;;;;;;;;;;;14.03;76.60;101510.63;5064342;28;20024;-54
2022/10/23 08:44:52;;;;;;;;;;;;;;;14.03;76.68;101505.31;5061668;28;19916;-54
2022/10/23 08:47:22;;;;;;;;;;;;;;;14.05;76.67;101507.88;5060349;28;19924;-55
2022/10/23 08:49:47;;;;;;;;;;;;;;;14.09;76.73;101508.56;5055416;28;19927;-54
2022/10/23 08:52:16;;;;;;;;;;;;;;;14.09;76.77;101504.09;5062099;28;20384;-56
2022/10/23 08:55:01;;;;;;;;;;;;;;;14.12;76.82;101511.00;5064844;28;19932;-55
2022/10/23 08:57:33;;;;;;;;;;;;;;;14.14;76.73;101509.13;5062724;28;19931;-56
2022/10/23 09:00:11;;;;;;;;;;;;;;;14.15;76.78;101514.31;5057927;28;19924;-56
2022/10/23 09:02:42;;;;;;;;;;;;;;;14.18;76.76;101514.13;5056786;28;19959;-55
2022/10/23 09:05:15;;;;;;;;;;;;;;;14.20;76.76;101510.56;5053304;28;20369;-55
2022/10/23 09:07:48;;;;;;;;;;;;;;;14.23;76.62;101511.22;5051453;28;20023;-56
2022/10/23 09:10:39;;;;;;;;;;;;;;;14.26;76.76;101516.31;5054394;28;19920;-55
2022/10/23 09:13:19;;;;;;;;;;;;;;;14.28;76.67;101513.56;5001561;28;19927;-54
2022/10/23 09:15:52;;;;;;;;;;;;;;;14.29;76.87;101510.81;5036467;28;19941;-54
2022/10/23 09:18:17;;;;;;;;;;;;;;;14.32;76.74;101510.63;5050286;28;19975;-55
2022/10/23 09:20:45;;;;;;;;;;;;;;;14.34;76.79;101513.22;5054302;28;20003;-55
2022/10/23 09:23:14;;;;;;;;;;;;;;;14.37;76.63;101517.44;5049754;28;19929;-55
2022/10/23 09:25:40;;;;;;;;;;;;;;;14.40;76.72;101511.97;5050861;28;20325;-56
2022/10/23 09:28:06;;;;;;;;;;;;;;;14.43;76.91;101515.28;5052442;28;19951;-55
2022/10/23 09:30:35;;;;;;;;;;;;;;;14.47;76.67;101518.56;5057567;28;19921;-54
2022/10/23 09:33:13;;;;;;;;;;;;;;;14.51;76.63;101508.66;5044189;28;19929;-55
2022/10/23 09:35:38;;;;;;;;;;;;;;;14.53;76.56;101512.03;5051014;28;20373;-55
2022/10/23 09:38:03;;;;;;;;;;;;;;;14.58;76.51;101508.19;5050997;28;19920;-55
2022/10/23 09:40:37;;;;;;;;;;;;;;;14.61;76.49;101507.13;5051696;28;19928;-54
2022/10/23 09:43:12;;;;;;;;;;;;;;;14.63;76.50;101503.44;5042675;28;20007;-55
2022/10/23 09:45:41;;;;;;;;;;;;;;;14.69;76.28;101511.97;5049717;28;20321;-54
2022/10/23 09:48:09;;;;;;;;;;;;;;;14.71;76.27;101507.44;5046700;28;19939;-56
2022/10/23 09:50:34;;;;;;;;;;;;;;;14.74;76.28;101504.59;5052698;28;19996;-54
2022/10/23 09:53:00;;;;;;;;;;;;;;;14.77;76.14;101504.38;5054358;28;20294;-55
2022/10/23 09:55:26;;;;;;;;;;;;;;;14.80;76.28;101504.19;5055417;28;20009;-55
2022/10/23 09:57:52;;;;;;;;;;;;;;;14.83;76.11;101501.34;5051990;28;19921;-55
2022/10/23 10:00:19;;;;;;;;;;;;;;;14.85;76.07;101501.25;5053484;28;19924;-54
2022/10/23 10:02:54;;;;;;;;;;;;;;;14.85;75.92;101499.47;5051558;28;19929;-54
2022/10/23 10:05:22;;;;;;;;;;;;;;;14.88;76.02;101507.22;5053288;28;20031;-56
2022/10/23 10:08:09;;;;;;;;;;;;;;;14.91;75.94;101509.66;5045454;28;19987;-55
2022/10/23 10:10:38;;;;;;;;;;;;;;;14.94;75.75;101511.28;5050704;28;19920;-56
2022/10/23 10:13:22;;;;;;;;;;;;;;;14.99;75.71;101513.63;5055153;28;19929;-54
2022/10/23 10:15:55;;;;;;;;;;;;;;;15.01;75.49;101507.28;5055780;28;19932;-55
2022/10/23 10:18:31;;;;;;;;;;;;;;;15.03;75.45;101501.88;5047371;28;19932;-55
2022/10/23 10:21:06;;;;;;;;;;;;;;;15.07;75.43;101506.03;5057925;28;19981;-54
2022/10/23 10:23:34;;;;;;;;;;;;;;;15.09;75.44;101501.47;5036776;28;20369;-54
2022/10/23 10:26:05;;;;;;;;;;;;;;;15.14;75.29;101502.03;5042910;28;20212;-54
2022/10/23 10:28:31;;;;;;;;;;;;;;;15.17;75.17;101499.19;5050528;28;20597;-55
2022/10/23 10:31:08;;;;;;;;;;;;;;;15.20;75.16;101501.63;5058065;28;19917;-54
2022/10/23 10:33:52;;;;;;;;;;;;;;;15.27;75.17;101495.94;5056497;28;19928;-55
2022/10/23 10:36:31;;;;;;;;;;;;;;;15.31;74.88;101489.47;5056463;28;20661;-54
2022/10/23 10:39:02;;;;;;;;;;;;;;;15.34;74.79;101491.94;5043090;28;19920;-54
2022/10/23 10:41:37;;;;;;;;;;;;;;;15.38;74.55;101493.41;5058965;28;21500;-55
2022/10/23 10:44:08;;;;;;;;;;;;;;;15.43;74.48;101487.81;5048793;28;19924;-54
2022/10/23 10:46:33;;;;;;;;;;;;;;;15.44;74.46;101482.41;5047685;28;19931;-56
2022/10/23 10:49:03;;;;;;;;;;;;;;;15.48;74.42;101483.03;5055780;28;19924;-56
2022/10/23 10:51:33;;;;;;;;;;;;;;;15.50;74.35;101481.16;5050981;28;19925;-54
2022/10/23 10:53:58;;;;;;;;;;;;;;;15.52;74.33;101480.06;5054389;28;19927;-54
2022/10/23 10:56:26;;;;;;;;;;;;;;;15.53;74.42;101465.03;5053219;28;19920;-56
2022/10/23 10:58:54;;;;;;;;;;;;;;;15.57;74.38;101470.97;5058675;28;19920;-56
2022/10/23 11:01:26;;;;;;;;;;;;;;;15.62;74.16;101460.91;5056619;28;20397;-55
2022/10/23 11:04:18;;;;;;;;;;;;;;;15.64;74.08;101457.19;5055954;28;20330;-56
2022/10/23 11:06:45;;;;;;;;;;;;;;;15.68;73.95;101452.50;5034366;28;19939;-54
2022/10/23 11:09:16;;;;;;;;;;;;;;;15.70;73.89;101446.16;5054706;28;20013;-57
2022/10/23 11:11:41;;;;;;;;;;;;;;;15.77;73.92;101451.91;5059344;28;19920;-55
2022/10/23 11:14:17;;;;;;;;;;;;;;;15.81;73.68;101448.06;5054654;28;19931;-54
2022/10/23 11:16:45;;;;;;;;;;;;;;;15.87;73.54;101446.00;5059356;28;19917;-55
2022/10/23 11:19:23;;;;;;;;;;;;;;;15.93;73.36;101434.97;5057126;28;19955;-55
2022/10/23 11:22:01;;;;;;;;;;;;;;;15.97;73.30;101431.97;5057373;28;19959;-54
2022/10/23 11:24:45;;;;;;;;;;;;;;;16.02;73.15;101425.50;5055440;28;20003;-55
2022/10/23 11:27:25;;;;;;;;;;;;;;;16.07;73.01;101410.94;5056317;28;19974;-55
2022/10/23 11:30:07;;;;;;;;;;;;;;;16.15;72.96;101413.91;5057081;28;19931;-55
2022/10/23 11:32:32;;;;;;;;;;;;;;;16.21;72.87;101407.31;5054947;28;19921;-55
2022/10/23 11:35:09;;;;;;;;;;;;;;;16.25;72.67;101403.47;5056017;28;19931;-55
2022/10/23 11:37:34;;;;;;;;;;;;;;;16.29;72.67;101399.66;5058647;28;19921;-55
2022/10/23 11:40:06;;;;;;;;;;;;;;;16.32;72.61;101398.56;5055107;28;19954;-55
2022/10/23 11:42:38;;;;;;;1999.90;999.90;;;;;;;16.41;72.23;101397.06;5054765;28;19927;-56
2022/10/23 11:45:24;;;;;;;;;;;;;;;16.39;71.17;101407.81;5055022;28;20090;-56
2022/10/23 11:48:00;;;;;;;;;;;;;;;16.40;71.12;101401.53;5044841;28;19924;-53
2022/10/23 11:50:28;;;;;;;;;;;;;;;16.41;71.31;101405.88;5051853;28;19920;-53
2022/10/23 11:53:21;;;;;;;;;;;;;;;16.42;70.86;101394.28;5051025;28;19970;-54
2022/10/23 11:55:59;;;;;;;;;;;;;;;16.45;70.75;101396.72;5056689;28;19912;-53
2022/10/23 11:58:30;;;;;;;;;;;;;;;16.51;70.73;101392.78;5056195;28;19957;-54
2022/10/23 12:01:17;;;;;;;;;;;;;;;16.56;69.49;101389.81;5053608;28;21215;-57
2022/10/23 12:03:53;;;;;;;;;;;;;;;16.60;69.63;101385.94;5054009;28;19951;-58
2022/10/23 12:06:41;;;;;;;;;;;;;;;16.64;69.47;101379.44;5057903;28;19936;-52
2022/10/23 12:09:17;;;;;;;;;;;;;;;16.69;69.41;101381.75;5054376;28;20316;-56
2022/10/23 12:11:45;;;;;;;;;;;;;;;16.71;69.16;101372.72;5055274;28;19916;-52
2022/10/23 12:14:31;;;;;;;;;;;;;;;16.75;69.31;101374.19;5053961;28;19920;-53
2022/10/23 12:16:56;;;;;;;;;;;;;;;16.78;68.49;101367.81;5056794;28;20039;-56
2022/10/23 12:19:23;;;;;;;;;;;;;;;16.82;69.12;101361.28;5056626;28;20028;-53
2022/10/23 12:21:57;;;;;;;;;;;;;;;16.87;68.60;101358.28;5057295;28;19917;-55
2022/10/23 12:24:22;;;;;;;;;;;;;;;16.92;68.23;101356.13;5057409;28;19927;-55
2022/10/23 12:26:51;;;;;;;;;;;;;;;16.95;68.16;101353.28;5057469;28;19912;-53
2022/10/23 12:29:27;;;;;;;;;;;;;;;16.98;67.79;101352.19;5058200;28;19908;-56
2022/10/23 12:32:01;;;;;;;;;;;;;;;17.01;67.48;101352.84;5039247;28;19978;-61
2022/10/23 12:34:42;;;;;;;;;;;;;;;17.05;67.71;101351.63;5052068;28;19948;-53
2022/10/23 12:37:08;;;;;;;;;;;;;;;17.10;67.89;101350.44;5056289;28;19961;-53
2022/10/23 12:39:38;;;;;;;;;;;;;;;17.16;68.22;101356.13;5053681;28;19920;-56
2022/10/23 12:42:09;;;;;;;;;;;;;;;17.23;68.21;101353.84;5048273;28;20014;-53
2022/10/23 12:44:35;;;;;;;;;;;;;;;17.30;68.09;101351.56;5059784;28;19912;-56